createdAt,value
2022-08-20T00:01:16.892Z,3.90
2022-08-20T00:03:44.809Z,4.15
2022-08-20T00:06:21.214Z,4.72
2022-08-20T00:08:48.910Z,5.30
2022-08-20T00:11:23.387Z,6.55
2022-08-20T00:13:55.063Z,7.95
2022-08-20T00:16:26.840Z,4.43
2022-08-20T00:18:54.393Z,5.63
2022-08-20T00:21:23.190Z,4.57
2022-08-20T00:23:52.485Z,8.07
2022-08-20T00:26:20.289Z,6.30
2022-08-20T00:28:48.141Z,6.28
2022-08-20T00:31:18.832Z,4.18
2022-08-20T00:33:47.525Z,5.80
2022-08-20T00:36:17.520Z,5.20
2022-08-20T00:38:46.737Z,6.40
2022-08-20T00:41:26.345Z,6.00
2022-08-20T00:44:24.447Z,14.70
2022-08-20T00:46:53.240Z,7.75
2022-08-20T00:49:27.935Z,7.63
2022-08-20T00:52:06.074Z,5.60
2022-08-20T00:54:39.946Z,10.18
2022-08-20T00:57:11.925Z,6.90
2022-08-20T00:59:41.881Z,7.50
2022-08-20T01:02:12.570Z,6.53
2022-08-20T01:04:40.676Z,8.23
2022-08-20T01:07:08.151Z,6.97
2022-08-20T01:09:57.627Z,8.02
2022-08-20T01:12:26.278Z,11.20
2022-08-20T01:14:54.981Z,7.43
2022-08-20T01:17:25.624Z,8.55
2022-08-20T01:19:59.403Z,10.93
2022-08-20T01:23:04.832Z,8.77
2022-08-20T01:25:54.456Z,6.70
2022-08-20T01:28:28.235Z,11.10
2022-08-20T01:30:56.066Z,9.35
2022-08-20T01:33:24.924Z,8.32
2022-08-20T01:35:54.000Z,7.70
2022-08-20T01:38:22.209Z,9.48
2022-08-20T01:41:28.527Z,10.70
2022-08-20T01:43:58.321Z,9.20
2022-08-20T01:46:28.503Z,10.35
2022-08-20T01:48:58.212Z,12.98
2022-08-20T01:51:29.715Z,9.32
2022-08-20T01:53:59.917Z,7.60
2022-08-20T01:56:30.494Z,10.15
2022-08-20T01:59:02.026Z,8.57
2022-08-20T02:01:46.654Z,10.88
2022-08-20T02:04:17.053Z,11.00
2022-08-20T02:06:56.544Z,9.85
2022-08-20T02:09:30.607Z,8.98
2022-08-20T02:11:58.208Z,11.63
2022-08-20T02:14:26.854Z,12.20
2022-08-20T02:16:55.378Z,8.48
2022-08-20T02:19:46.268Z,8.43
2022-08-20T02:22:26.043Z,11.40
2022-08-20T02:24:53.633Z,8.80
2022-08-20T02:27:23.940Z,10.75
2022-08-20T02:29:52.379Z,8.02
2022-08-20T02:32:31.188Z,8.82
2022-08-20T02:35:03.716Z,6.00
2022-08-20T02:37:31.830Z,9.52
2022-08-20T02:39:59.569Z,9.63
2022-08-20T02:42:27.448Z,8.43
2022-08-20T02:44:55.012Z,8.65
2022-08-20T02:47:22.573Z,8.77
2022-08-20T02:49:49.942Z,11.52
2022-08-20T02:52:17.313Z,10.68
2022-08-20T02:54:44.694Z,9.48
2022-08-20T02:57:14.902Z,10.23
2022-08-20T02:59:43.819Z,8.10
2022-08-20T03:02:12.127Z,9.68
2022-08-20T03:04:39.482Z,8.13
2022-08-20T03:07:07.173Z,11.07
2022-08-20T03:09:34.538Z,10.63
2022-08-20T03:12:02.951Z,8.13
2022-08-20T03:14:30.411Z,11.18
2022-08-20T03:16:57.825Z,11.05
2022-08-20T03:19:26.122Z,11.52
2022-08-20T03:21:53.603Z,8.55
2022-08-20T03:24:21.025Z,10.55
2022-08-20T03:26:48.517Z,9.13
2022-08-20T03:29:15.869Z,13.10
2022-08-20T03:31:43.288Z,8.88
2022-08-20T03:34:10.905Z,20.35
2022-08-20T03:36:38.294Z,16.70
2022-08-20T03:39:11.194Z,17.20
2022-08-20T03:41:38.887Z,18.15
2022-08-20T03:44:06.964Z,16.00
2022-08-20T03:46:34.638Z,19.10
2022-08-20T03:49:02.139Z,35.80
2022-08-20T03:51:31.011Z,26.85
2022-08-20T03:53:59.393Z,14.50
2022-08-20T03:56:27.431Z,10.40
2022-08-20T03:58:55.761Z,11.05
2022-08-20T04:01:44.543Z,10.75
2022-08-20T04:04:12.470Z,10.05
2022-08-20T04:06:41.209Z,9.30
2022-08-20T04:09:11.950Z,7.45
2022-08-20T04:11:40.817Z,12.02
2022-08-20T04:14:09.325Z,10.73
2022-08-20T04:16:40.509Z,7.40
2022-08-20T04:19:08.653Z,6.05
2022-08-20T04:21:36.667Z,7.25
2022-08-20T04:24:05.946Z,5.10
2022-08-20T04:26:37.285Z,5.53
2022-08-20T04:29:05.062Z,4.07
2022-08-20T04:31:35.509Z,4.80
2022-08-20T04:34:04.564Z,4.50
2022-08-20T04:36:32.062Z,5.47
2022-08-20T04:38:59.419Z,5.60
2022-08-20T04:41:27.027Z,6.10
2022-08-20T04:43:56.017Z,6.60
2022-08-20T04:46:28.749Z,4.55
2022-08-20T04:48:57.655Z,4.38
2022-08-20T04:51:25.371Z,4.32
2022-08-20T04:53:56.294Z,5.38
2022-08-20T04:56:27.212Z,6.00
2022-08-20T04:58:56.903Z,2.58
2022-08-20T05:01:26.208Z,4.40
2022-08-20T05:03:56.312Z,4.93
2022-08-20T05:06:28.660Z,6.37
2022-08-20T05:08:58.180Z,4.25
2022-08-20T05:11:34.806Z,7.30
2022-08-20T05:14:05.700Z,5.45
2022-08-20T05:16:38.003Z,3.60
2022-08-20T05:19:08.786Z,5.25
2022-08-20T05:21:37.159Z,9.00
2022-08-20T05:24:05.584Z,5.35
2022-08-20T05:26:33.590Z,9.18
2022-08-20T05:29:00.950Z,8.82
2022-08-20T05:31:32.045Z,6.90
2022-08-20T05:34:03.434Z,5.75
2022-08-20T05:36:30.930Z,7.13
2022-08-20T05:38:58.318Z,5.72
2022-08-20T05:41:28.901Z,6.65
2022-08-20T05:44:01.363Z,4.05
2022-08-20T05:46:31.497Z,4.10
2022-08-20T05:49:01.841Z,5.68
2022-08-20T05:51:30.355Z,3.38
2022-08-20T05:53:59.078Z,2.58
2022-08-20T05:56:30.846Z,4.25
2022-08-20T05:59:02.877Z,4.72
2022-08-20T06:01:31.874Z,3.50
2022-08-20T06:04:18.246Z,4.18
2022-08-20T06:06:47.144Z,4.03
2022-08-20T06:09:31.099Z,5.30
2022-08-20T06:12:06.115Z,3.28
2022-08-20T06:14:34.314Z,3.85
2022-08-20T06:17:10.609Z,4.70
2022-08-20T06:19:44.138Z,5.38
2022-08-20T06:22:21.065Z,3.75
2022-08-20T06:24:54.982Z,4.53
2022-08-20T06:27:22.575Z,4.40
2022-08-20T06:29:51.247Z,2.72
2022-08-20T06:32:28.739Z,5.03
2022-08-20T06:35:05.943Z,4.82
2022-08-20T06:37:39.357Z,4.82
2022-08-20T06:40:13.182Z,5.85
2022-08-20T06:42:47.854Z,5.53
2022-08-20T06:45:18.935Z,5.63
2022-08-20T06:47:47.335Z,4.55
2022-08-20T06:50:19.711Z,4.32
2022-08-20T06:53:03.181Z,5.13
2022-08-20T06:55:30.779Z,5.43
2022-08-20T06:58:13.129Z,6.45
2022-08-20T07:00:56.431Z,6.50
2022-08-20T07:03:23.823Z,6.70
2022-08-20T07:05:51.220Z,5.15
2022-08-20T07:08:19.942Z,6.57
2022-08-20T07:10:47.329Z,11.70
2022-08-20T07:13:16.440Z,8.18
2022-08-20T07:15:45.130Z,6.00
2022-08-20T07:18:14.153Z,8.05
2022-08-20T07:20:42.192Z,8.77
2022-08-20T07:23:12.079Z,8.63
2022-08-20T07:25:41.695Z,7.78
2022-08-20T07:28:13.698Z,6.80
2022-08-20T07:31:12.338Z,7.70
2022-08-20T07:33:42.035Z,5.75
2022-08-20T07:36:10.809Z,4.90
2022-08-20T07:38:38.173Z,5.10
2022-08-20T07:41:08.657Z,5.63
2022-08-20T07:43:36.432Z,7.72
2022-08-20T07:46:08.972Z,5.55
2022-08-20T07:48:42.290Z,8.63
2022-08-20T07:51:11.115Z,6.80
2022-08-20T07:53:40.321Z,9.63
2022-08-20T07:56:11.467Z,7.40
2022-08-20T07:58:42.623Z,7.00
2022-08-20T08:01:11.504Z,8.43
2022-08-20T08:03:40.931Z,7.45
2022-08-20T08:06:30.160Z,7.97
2022-08-20T08:09:03.688Z,7.55
2022-08-20T08:11:33.325Z,7.93
2022-08-20T08:14:01.035Z,6.97
2022-08-20T08:16:29.115Z,11.07
2022-08-20T08:18:56.930Z,10.13
2022-08-20T08:21:25.300Z,9.23
2022-08-20T08:23:53.491Z,10.35
2022-08-20T08:26:22.509Z,9.15
2022-08-20T08:28:50.821Z,11.88
2022-08-20T08:31:18.224Z,9.07
2022-08-20T08:33:45.628Z,9.15
2022-08-20T08:36:15.204Z,6.43
2022-08-20T08:38:44.862Z,7.25
2022-08-20T08:41:34.105Z,6.85
2022-08-20T08:44:21.011Z,7.20
2022-08-20T08:46:49.623Z,11.23
2022-08-20T08:49:22.582Z,9.23
2022-08-20T08:51:56.223Z,7.82
2022-08-20T08:54:27.910Z,6.68
2022-08-20T08:56:55.942Z,7.65
2022-08-20T08:59:23.746Z,7.03
2022-08-20T09:01:57.298Z,8.20
2022-08-20T09:04:37.207Z,7.70
2022-08-20T09:07:11.014Z,6.97
2022-08-20T09:09:41.697Z,9.25
2022-08-20T09:12:12.547Z,7.05
2022-08-20T09:14:40.042Z,8.98
2022-08-20T09:17:07.923Z,7.20
2022-08-20T09:19:35.914Z,9.50
2022-08-20T09:22:15.858Z,7.90
2022-08-20T09:24:44.519Z,7.75
2022-08-20T09:27:12.175Z,7.75
2022-08-20T09:29:39.895Z,7.63
2022-08-20T09:32:17.296Z,9.48
2022-08-20T09:34:47.674Z,5.90
2022-08-20T09:37:15.850Z,7.72
2022-08-20T09:39:43.618Z,6.95
2022-08-20T09:42:18.017Z,13.85
2022-08-20T09:44:45.723Z,4.78
2022-08-20T09:47:14.108Z,4.90
2022-08-20T09:49:41.546Z,7.65
2022-08-20T09:52:13.732Z,7.65
2022-08-20T09:54:46.329Z,7.18
2022-08-20T09:57:15.409Z,8.90
2022-08-20T09:59:43.132Z,6.68
2022-08-20T10:02:10.559Z,7.05
2022-08-20T10:04:37.965Z,8.10
2022-08-20T10:07:08.951Z,5.78
2022-08-20T10:09:38.367Z,7.23
2022-08-20T10:12:07.699Z,5.97
2022-08-20T10:14:35.114Z,6.93
2022-08-20T10:17:03.352Z,7.68
2022-08-20T10:19:31.633Z,6.75
2022-08-20T10:21:59.842Z,6.45
2022-08-20T10:24:28.180Z,6.00
2022-08-20T10:27:00.197Z,4.28
2022-08-20T10:29:28.758Z,11.45
2022-08-20T10:31:57.156Z,8.57
2022-08-20T10:34:25.318Z,6.60
2022-08-20T10:36:52.753Z,5.88
2022-08-20T10:39:20.113Z,7.22
2022-08-20T10:41:47.486Z,8.45
2022-08-20T10:44:14.857Z,6.00
2022-08-20T10:46:42.266Z,6.07
2022-08-20T10:49:09.638Z,7.90
2022-08-20T10:51:37.132Z,5.68
2022-08-20T10:54:12.363Z,7.05
2022-08-20T10:56:40.417Z,7.38
2022-08-20T10:59:08.581Z,8.95
2022-08-20T11:01:36.945Z,7.03
2022-08-20T11:04:05.024Z,7.03
2022-08-20T11:06:32.439Z,7.93
2022-08-20T11:08:59.763Z,7.45
2022-08-20T11:11:27.201Z,6.30
2022-08-20T11:13:54.569Z,7.03
2022-08-20T11:16:21.946Z,7.25
2022-08-20T11:18:50.257Z,7.63
2022-08-20T11:21:17.659Z,7.78
2022-08-20T11:23:45.004Z,5.88
2022-08-20T11:26:23.227Z,12.05
2022-08-20T11:28:50.910Z,10.73
2022-08-20T11:31:18.414Z,5.82
2022-08-20T11:33:45.758Z,7.60
2022-08-20T11:36:13.385Z,6.88
2022-08-20T11:38:40.768Z,6.65
2022-08-20T11:41:08.173Z,8.55
2022-08-20T11:43:35.503Z,7.38
2022-08-20T11:46:02.896Z,6.88
2022-08-20T11:48:30.737Z,6.47
2022-08-20T11:50:58.134Z,6.78
2022-08-20T11:53:25.472Z,8.27
2022-08-20T11:55:52.973Z,7.82
2022-08-20T11:58:20.334Z,6.95
2022-08-20T12:00:48.070Z,5.30
2022-08-20T12:03:15.861Z,7.38
2022-08-20T12:05:45.047Z,6.20
2022-08-20T12:08:26.853Z,7.97
2022-08-20T12:11:00.267Z,6.45
2022-08-20T12:13:30.822Z,8.77
2022-08-20T12:16:15.916Z,10.48
2022-08-20T12:18:43.262Z,6.88
2022-08-20T12:21:10.865Z,10.18
2022-08-20T12:23:38.535Z,5.38
2022-08-20T12:26:06.328Z,6.22
2022-08-20T12:28:33.906Z,9.18
2022-08-20T12:31:01.311Z,7.50
2022-08-20T12:33:28.809Z,9.23
2022-08-20T12:35:57.855Z,7.63
2022-08-20T12:38:25.295Z,6.95
2022-08-20T12:40:52.754Z,7.68
2022-08-20T12:43:24.688Z,5.63
2022-08-20T12:45:52.592Z,7.18
2022-08-20T12:48:20.952Z,5.55
2022-08-20T12:50:50.073Z,6.15
2022-08-20T12:53:17.779Z,8.50
2022-08-20T12:55:45.725Z,7.10
2022-08-20T12:58:13.469Z,9.65
2022-08-20T13:00:48.672Z,6.70
2022-08-20T13:03:20.219Z,6.90
2022-08-20T13:05:48.957Z,8.15
2022-08-20T13:08:17.986Z,7.20
2022-08-20T13:10:46.405Z,5.93
2022-08-20T13:13:15.384Z,7.28
2022-08-20T13:15:45.121Z,7.90
2022-08-20T13:18:12.474Z,6.32
2022-08-20T13:20:39.867Z,9.55
2022-08-20T13:23:07.249Z,4.78
2022-08-20T13:25:34.894Z,6.15
2022-08-20T13:28:04.514Z,8.50
2022-08-20T13:30:34.603Z,6.72
2022-08-20T13:33:02.208Z,7.15
2022-08-20T13:35:32.097Z,6.88
2022-08-20T13:37:59.473Z,6.80
2022-08-20T13:40:27.801Z,7.45
2022-08-20T13:42:55.594Z,6.55
2022-08-20T13:45:23.149Z,5.32
2022-08-20T13:47:54.237Z,6.15
2022-08-20T13:50:24.163Z,8.48
2022-08-20T13:52:51.709Z,5.97
2022-08-20T13:55:25.209Z,7.35
2022-08-20T13:57:53.210Z,6.57
2022-08-20T14:00:31.321Z,6.70
2022-08-20T14:03:04.681Z,5.70
2022-08-20T14:05:33.574Z,5.85
2022-08-20T14:08:10.347Z,5.85
2022-08-20T14:10:38.261Z,6.35
2022-08-20T14:13:06.947Z,8.25
2022-08-20T14:15:35.581Z,7.82
2022-08-20T14:18:04.046Z,6.40
2022-08-20T14:20:33.712Z,6.40
2022-08-20T14:23:01.783Z,6.78
2022-08-20T14:25:30.654Z,5.40
2022-08-20T14:27:58.744Z,5.68
2022-08-20T14:30:30.487Z,6.82
2022-08-20T14:32:57.959Z,7.45
2022-08-20T14:35:25.627Z,5.53
2022-08-20T14:37:56.538Z,6.35
2022-08-20T14:40:25.951Z,4.50
2022-08-20T14:42:54.378Z,4.85
2022-08-20T14:45:22.892Z,4.95
2022-08-20T14:47:57.056Z,6.80
2022-08-20T14:50:31.375Z,5.00
2022-08-20T14:52:59.651Z,4.85
2022-08-20T14:55:31.560Z,5.90
2022-08-20T15:00:30.888Z,9.80
2022-08-20T15:02:58.543Z,8.73
2022-08-20T15:05:26.618Z,6.55
2022-08-20T15:07:56.637Z,6.22
2022-08-20T15:10:32.447Z,6.47
2022-08-20T15:13:02.480Z,5.85
2022-08-20T15:15:30.219Z,5.78
2022-08-20T15:18:02.228Z,4.03
2022-08-20T15:20:32.275Z,4.53
2022-08-20T15:23:00.500Z,5.10
2022-08-20T15:25:36.743Z,5.47
2022-08-20T15:28:08.247Z,3.78
2022-08-20T15:30:37.331Z,4.40
2022-08-20T15:33:04.881Z,8.38
2022-08-20T15:35:32.459Z,6.00
2022-08-20T15:38:00.121Z,5.30
2022-08-20T15:40:30.988Z,7.47
2022-08-20T15:42:59.854Z,6.55
2022-08-20T15:45:28.062Z,4.95
2022-08-20T15:48:18.144Z,3.97
2022-08-20T15:51:21.155Z,4.07
2022-08-20T15:54:07.505Z,6.57
2022-08-20T15:57:10.677Z,5.60
2022-08-20T16:00:02.817Z,6.97
2022-08-20T16:02:58.695Z,5.70
2022-08-20T16:06:18.740Z,4.25
2022-08-20T16:09:40.682Z,4.85
2022-08-20T16:12:12.135Z,4.22
2022-08-20T16:14:45.269Z,4.47
2022-08-20T16:17:17.175Z,3.90
2022-08-20T16:22:30.863Z,4.85
2022-08-20T16:24:58.715Z,3.75
2022-08-20T16:27:50.746Z,4.20
2022-08-20T16:30:37.951Z,3.75
2022-08-20T16:33:24.567Z,5.70
2022-08-20T16:36:01.634Z,5.40
2022-08-20T16:38:58.403Z,10.13
2022-08-20T16:41:42.039Z,6.40
2022-08-20T16:44:44.753Z,4.55
2022-08-20T16:47:17.289Z,5.13
2022-08-20T16:50:16.138Z,4.47
2022-08-20T16:52:45.602Z,6.32
2022-08-20T16:55:14.037Z,4.90
2022-08-20T16:57:41.763Z,4.22
2022-08-20T17:00:30.471Z,4.65
2022-08-20T17:03:40.101Z,4.07
2022-08-20T17:06:19.428Z,5.25
2022-08-20T17:08:49.783Z,4.65
2022-08-20T17:11:32.581Z,8.45
2022-08-20T17:14:15.229Z,4.97
2022-08-20T17:16:51.172Z,4.13
2022-08-20T17:19:29.701Z,4.10
2022-08-20T17:22:09.054Z,5.97
2022-08-20T17:24:37.778Z,5.93
2022-08-20T17:27:10.363Z,5.65
2022-08-20T17:29:49.991Z,3.78
2022-08-20T17:32:28.112Z,4.18
2022-08-20T17:34:58.257Z,4.32
2022-08-20T17:37:34.963Z,4.15
2022-08-20T17:40:25.015Z,4.22
2022-08-20T17:43:02.545Z,4.53
2022-08-20T17:45:44.666Z,3.22
2022-08-20T17:50:54.078Z,3.45
2022-08-20T17:53:32.023Z,5.13
2022-08-20T17:56:09.066Z,2.97
2022-08-20T17:58:52.538Z,3.47
2022-08-20T18:01:23.420Z,3.63
2022-08-20T18:03:52.611Z,4.43
2022-08-20T18:06:56.329Z,5.63
2022-08-20T18:09:46.504Z,5.15
2022-08-20T18:12:33.401Z,3.15
2022-08-20T18:15:24.755Z,4.32
2022-08-20T18:17:59.814Z,3.53
2022-08-20T18:21:22.178Z,2.95
2022-08-20T18:23:58.060Z,4.28
2022-08-20T18:27:08.778Z,3.67
2022-08-20T18:29:41.621Z,3.25
2022-08-20T18:32:41.194Z,2.75
2022-08-20T18:35:31.151Z,3.80
2022-08-20T18:38:29.042Z,5.53
2022-08-20T18:41:33.062Z,2.67
2022-08-20T18:44:12.832Z,3.88
2022-08-20T18:46:58.393Z,3.95
2022-08-20T18:49:35.532Z,7.38
2022-08-20T18:52:23.730Z,4.45
2022-08-20T18:54:55.583Z,6.15
2022-08-20T19:00:19.830Z,2.33
2022-08-20T19:03:14.925Z,3.42
2022-08-20T19:06:19.018Z,3.03
2022-08-20T19:09:10.017Z,3.95
2022-08-20T19:12:40.454Z,3.58
2022-08-20T19:15:22.656Z,4.35
2022-08-20T19:18:06.327Z,4.10
2022-08-20T19:20:37.391Z,3.50
2022-08-20T19:23:18.625Z,3.40
2022-08-20T19:25:56.129Z,3.77
2022-08-20T19:28:29.926Z,4.53
2022-08-20T19:31:28.205Z,4.13
2022-08-20T19:34:24.057Z,4.15
2022-08-20T19:37:35.761Z,4.75
2022-08-20T19:40:01.143Z,4.43
2022-08-20T19:42:32.155Z,4.18
2022-08-20T19:45:06.779Z,5.77
2022-08-20T19:47:37.530Z,4.53
2022-08-20T19:50:23.068Z,3.47
2022-08-20T19:53:38.916Z,6.03
2022-08-20T19:56:12.045Z,3.47
2022-08-20T19:58:40.097Z,4.43
2022-08-20T20:01:19.964Z,3.88
2022-08-20T20:04:00.407Z,7.28
2022-08-20T20:06:30.009Z,4.18
2022-08-20T20:09:26.997Z,5.07
2022-08-20T20:11:58.443Z,4.95
2022-08-20T20:14:34.879Z,3.72
2022-08-20T20:17:08.979Z,3.47
2022-08-20T20:20:22.490Z,4.40
2022-08-20T20:23:06.461Z,4.22
2022-08-20T20:25:41.343Z,4.88
2022-08-20T20:28:24.255Z,5.05
2022-08-20T20:30:51.721Z,5.40
2022-08-20T20:33:35.819Z,5.15
2022-08-20T20:36:23.179Z,4.03
2022-08-20T20:39:00.375Z,4.32
2022-08-20T20:41:29.472Z,3.50
2022-08-20T20:44:17.331Z,4.70
2022-08-20T20:46:47.741Z,5.80
2022-08-20T20:49:30.475Z,4.80
2022-08-20T20:52:17.620Z,3.78
2022-08-20T20:54:46.960Z,3.55
2022-08-20T20:57:38.923Z,4.18
2022-08-20T21:00:14.440Z,4.03
2022-08-20T21:02:41.905Z,4.35
2022-08-20T21:05:10.674Z,4.53
2022-08-20T21:07:50.595Z,3.03
2022-08-20T21:10:24.122Z,4.25
2022-08-20T21:12:53.373Z,3.10
2022-08-20T21:15:23.226Z,4.55
2022-08-20T21:17:51.437Z,3.92
2022-08-20T21:20:20.602Z,4.97
2022-08-20T21:22:48.023Z,4.68
2022-08-20T21:25:15.656Z,3.88
2022-08-20T21:27:46.272Z,3.97
2022-08-20T21:30:15.012Z,5.65
2022-08-20T21:32:42.546Z,6.75
2022-08-20T21:35:11.073Z,4.95
2022-08-20T21:37:39.201Z,5.72
2022-08-20T21:40:09.370Z,4.55
2022-08-20T21:42:38.525Z,2.85
2022-08-20T21:45:10.099Z,5.32
2022-08-20T21:47:37.543Z,6.55
2022-08-20T21:50:06.142Z,6.43
2022-08-20T21:52:35.519Z,5.50
2022-08-20T21:55:03.080Z,5.35
2022-08-20T21:57:33.123Z,5.07
2022-08-20T22:00:02.264Z,9.02
2022-08-20T22:02:32.316Z,6.95
2022-08-20T22:04:59.780Z,3.63
2022-08-20T22:07:27.152Z,7.05
2022-08-20T22:09:54.475Z,7.35
2022-08-20T22:12:24.899Z,5.18
2022-08-20T22:14:53.117Z,9.52
2022-08-20T22:17:20.957Z,6.40
2022-08-20T22:19:48.433Z,5.88
2022-08-20T22:22:17.487Z,7.78
2022-08-20T22:24:45.715Z,7.60
2022-08-20T22:27:14.118Z,6.47
2022-08-20T22:29:41.546Z,7.70
2022-08-20T22:32:08.963Z,7.38
2022-08-20T22:34:37.983Z,4.68
2022-08-20T22:37:05.691Z,6.32
2022-08-20T22:39:33.095Z,5.65
2022-08-20T22:42:00.525Z,4.82
2022-08-20T22:44:27.928Z,5.82
2022-08-20T22:47:00.072Z,5.43
2022-08-20T22:49:32.135Z,6.30
2022-08-20T22:52:00.003Z,7.15
2022-08-20T22:54:28.016Z,4.15
2022-08-20T22:56:56.218Z,5.85
2022-08-20T22:59:24.145Z,8.95
2022-08-20T23:01:52.511Z,6.78
2022-08-20T23:04:25.970Z,5.22
2022-08-20T23:06:54.671Z,4.75
2022-08-20T23:09:22.323Z,5.55
2022-08-20T23:11:50.140Z,5.90
2022-08-20T23:14:18.023Z,7.47
2022-08-20T23:16:48.169Z,5.43
2022-08-20T23:19:21.639Z,5.35
2022-08-20T23:21:51.344Z,4.80
2022-08-20T23:24:19.533Z,4.90
2022-08-20T23:26:53.050Z,7.15
2022-08-20T23:29:25.819Z,4.25
2022-08-20T23:31:55.942Z,4.05
2022-08-20T23:34:23.910Z,5.32
2022-08-20T23:36:52.577Z,4.35
2022-08-20T23:39:20.200Z,4.90
2022-08-20T23:41:48.291Z,5.72
2022-08-20T23:44:25.344Z,4.28
2022-08-20T23:47:01.251Z,6.32
2022-08-20T23:49:29.361Z,5.20
2022-08-20T23:52:00.025Z,3.97
2022-08-20T23:54:29.757Z,5.30
2022-08-20T23:56:57.653Z,6.45
2022-08-20T23:59:26.059Z,5.88
